createdAt,value
2018-07-25T00:00:01.073Z,99.90
2018-07-25T00:02:29.281Z,99.90
2018-07-25T00:11:41.477Z,99.90
2018-07-25T00:14:09.966Z,99.90
2018-07-25T00:16:38.205Z,99.90
2018-07-25T00:19:06.398Z,99.90
2018-07-25T00:21:34.681Z,99.90
2018-07-25T00:24:02.850Z,99.90
2018-07-25T00:26:31.063Z,99.90
2018-07-25T00:28:59.281Z,99.90
2018-07-25T00:33:55.461Z,99.90
2018-07-25T00:36:23.870Z,99.90
2018-07-25T00:38:52.094Z,99.90
2018-07-25T00:41:20.321Z,99.90
2018-07-25T00:43:48.525Z,99.90
2018-07-25T00:46:16.802Z,99.90
2018-07-25T00:48:45.021Z,99.90
2018-07-25T00:51:13.237Z,99.90
2018-07-25T00:53:41.458Z,99.90
2018-07-25T00:56:09.680Z,99.90
2018-07-25T00:58:38.026Z,99.90
2018-07-25T01:01:06.258Z,99.90
2018-07-25T01:03:34.465Z,99.90
2018-07-25T01:06:02.717Z,99.90
2018-07-25T01:08:30.985Z,99.90
2018-07-25T01:10:59.218Z,99.90
2018-07-25T01:13:27.467Z,99.90
2018-07-25T01:15:55.673Z,99.90
2018-07-25T01:18:23.932Z,99.90
2018-07-25T01:20:52.218Z,99.90
2018-07-25T01:23:20.417Z,99.90
2018-07-25T01:25:48.649Z,99.90
2018-07-25T01:28:16.841Z,99.90
2018-07-25T01:30:45.076Z,99.90
2018-07-25T01:33:13.281Z,99.90
2018-07-25T01:35:41.468Z,99.90
2018-07-25T01:38:09.726Z,99.90
2018-07-25T01:40:37.931Z,99.90
2018-07-25T01:43:06.145Z,99.90
2018-07-25T01:45:34.357Z,99.90
2018-07-25T01:48:02.634Z,99.90
2018-07-25T01:50:30.869Z,99.90
2018-07-25T01:55:27.273Z,99.90
2018-07-25T01:57:55.512Z,99.90
2018-07-25T02:00:23.721Z,99.90
2018-07-25T02:02:51.922Z,99.90
2018-07-25T02:05:20.274Z,99.90
2018-07-25T02:07:48.623Z,99.90
2018-07-25T02:10:17.002Z,99.90
2018-07-25T02:12:45.226Z,99.90
2018-07-25T02:15:13.484Z,99.90
2018-07-25T02:17:41.830Z,99.90
2018-07-25T02:20:10.024Z,99.90
2018-07-25T02:22:38.249Z,99.90
2018-07-25T02:27:34.457Z,99.90
2018-07-25T02:30:02.725Z,99.90
2018-07-25T02:32:30.937Z,99.90
2018-07-25T02:34:59.150Z,99.90
2018-07-25T02:37:27.524Z,99.90
2018-07-25T02:39:55.752Z,99.90
2018-07-25T02:42:23.989Z,99.90
2018-07-25T02:44:52.171Z,99.90
2018-07-25T02:47:20.390Z,99.90
2018-07-25T02:49:48.654Z,99.90
2018-07-25T02:52:16.897Z,99.90
2018-07-25T02:56:14.359Z,99.90
2018-07-25T02:58:42.561Z,99.90
2018-07-25T03:01:10.785Z,99.90
2018-07-25T03:03:38.999Z,99.90
2018-07-25T03:06:07.258Z,99.90
2018-07-25T03:08:35.506Z,99.90
2018-07-25T03:11:03.885Z,99.90
2018-07-25T03:13:32.089Z,99.90
2018-07-25T03:16:04.315Z,99.90
2018-07-25T03:18:32.547Z,99.90
2018-07-25T03:21:01.515Z,99.90
2018-07-25T03:23:30.858Z,99.90
2018-07-25T03:25:59.086Z,99.90
2018-07-25T03:28:27.926Z,99.90
2018-07-25T03:30:56.162Z,99.90
2018-07-25T03:33:25.174Z,99.90
2018-07-25T03:35:54.013Z,99.90
2018-07-25T03:38:22.250Z,99.90
2018-07-25T03:40:50.498Z,99.90
2018-07-25T03:43:18.721Z,99.90
2018-07-25T03:45:46.997Z,99.90
2018-07-25T03:48:15.249Z,99.90
2018-07-25T03:50:43.489Z,99.90
2018-07-25T03:53:11.776Z,99.90
2018-07-25T03:55:40.173Z,99.90
2018-07-25T03:58:08.406Z,99.90
2018-07-25T04:00:36.688Z,99.90
2018-07-25T04:03:04.934Z,99.90
2018-07-25T04:08:01.125Z,99.90
2018-07-25T04:10:29.346Z,99.90
2018-07-25T04:12:57.585Z,99.90
2018-07-25T04:15:25.785Z,99.90
2018-07-25T04:17:54.038Z,99.90
2018-07-25T04:20:22.249Z,99.90
2018-07-25T04:22:50.473Z,99.90
2018-07-25T04:25:18.689Z,99.90
2018-07-25T04:27:47.254Z,99.90
2018-07-25T04:30:16.451Z,99.90
2018-07-25T04:32:45.279Z,99.90
2018-07-25T04:35:14.664Z,99.90
2018-07-25T04:37:43.707Z,99.90
2018-07-25T04:40:12.458Z,99.90
2018-07-25T04:42:40.737Z,99.90
2018-07-25T04:45:10.340Z,99.90
2018-07-25T04:47:38.674Z,99.90
2018-07-25T04:50:07.267Z,99.90
2018-07-25T04:52:35.508Z,99.90
2018-07-25T04:55:03.837Z,99.90
2018-07-25T04:57:32.102Z,99.90
2018-07-25T05:00:00.362Z,99.90
2018-07-25T05:02:29.807Z,99.90
2018-07-25T05:04:57.996Z,99.90
2018-07-25T05:07:26.241Z,99.90
2018-07-25T05:09:55.145Z,99.90
2018-07-25T05:12:23.466Z,99.90
2018-07-25T05:14:51.672Z,99.90
2018-07-25T05:17:19.971Z,99.90
2018-07-25T05:19:48.210Z,99.90
2018-07-25T05:22:16.442Z,99.90
2018-07-25T05:29:40.738Z,99.90
2018-07-25T05:32:08.950Z,99.90
2018-07-25T05:34:37.158Z,99.90
2018-07-25T05:37:05.454Z,99.90
2018-07-25T05:39:33.681Z,99.90
2018-07-25T05:42:01.903Z,99.90
2018-07-25T05:44:30.142Z,99.90
2018-07-25T05:46:58.355Z,99.80
2018-07-25T05:49:26.638Z,99.80
2018-07-25T05:51:54.793Z,99.90
2018-07-25T05:54:22.983Z,99.90
2018-07-25T05:56:51.238Z,99.90
2018-07-25T05:59:19.641Z,99.90
2018-07-25T06:01:47.886Z,99.80
2018-07-25T06:04:16.112Z,99.30
2018-07-25T06:06:44.277Z,99.30
2018-07-25T06:09:12.498Z,99.40
2018-07-25T06:11:40.706Z,98.70
2018-07-25T06:14:08.948Z,99.00
2018-07-25T06:16:37.137Z,99.20
2018-07-25T06:19:05.359Z,98.50
2018-07-25T06:21:33.578Z,97.80
2018-07-25T06:24:01.793Z,97.50
2018-07-25T06:26:29.994Z,97.40
2018-07-25T06:31:26.871Z,96.90
2018-07-25T06:33:55.158Z,96.30
2018-07-25T06:36:23.561Z,96.90
2018-07-25T06:38:51.792Z,96.50
2018-07-25T06:41:20.002Z,96.70
2018-07-25T06:43:48.269Z,97.20
2018-07-25T06:46:16.466Z,95.70
2018-07-25T06:48:44.714Z,96.10
2018-07-25T06:51:13.635Z,96.10
2018-07-25T06:53:41.927Z,95.70
2018-07-25T06:56:11.509Z,95.70
2018-07-25T06:58:39.842Z,94.40
2018-07-25T07:01:08.132Z,94.20
2018-07-25T07:03:36.501Z,93.60
2018-07-25T07:06:04.757Z,93.10
2018-07-25T07:11:00.994Z,93.50
2018-07-25T07:13:29.205Z,93.20
2018-07-25T07:15:57.541Z,92.90
2018-07-25T07:18:25.779Z,92.60
2018-07-25T07:20:54.058Z,92.40
2018-07-25T07:23:22.387Z,92.50
2018-07-25T07:28:18.644Z,92.20
2018-07-25T07:30:46.933Z,92.00
2018-07-25T07:33:15.202Z,91.40
2018-07-25T07:35:43.560Z,90.30
2018-07-25T07:38:11.831Z,90.40
2018-07-25T07:40:40.125Z,89.80
2018-07-25T07:43:08.349Z,90.00
2018-07-25T07:45:36.609Z,90.00
2018-07-25T07:48:04.950Z,90.20
2018-07-25T07:53:01.359Z,90.00
2018-07-25T07:55:29.674Z,89.70
2018-07-25T07:57:57.994Z,90.00
2018-07-25T08:00:26.225Z,90.00
2018-07-25T08:05:22.554Z,89.10
2018-07-25T08:07:51.093Z,89.60
2018-07-25T08:10:19.381Z,88.00
2018-07-25T08:12:47.688Z,87.60
2018-07-25T08:15:16.006Z,88.50
2018-07-25T08:17:44.460Z,86.90
2018-07-25T08:20:12.866Z,85.20
2018-07-25T08:22:41.165Z,81.40
2018-07-25T08:25:09.409Z,81.70
2018-07-25T08:27:37.660Z,83.30
2018-07-25T08:30:06.809Z,82.30
2018-07-25T08:32:35.411Z,81.80
2018-07-25T08:35:03.785Z,81.60
2018-07-25T08:37:32.046Z,79.90
2018-07-25T08:40:00.630Z,78.90
2018-07-25T08:42:34.436Z,79.90
2018-07-25T08:45:10.138Z,78.30
2018-07-25T08:47:41.233Z,77.10
2018-07-25T08:50:14.927Z,76.20
2018-07-25T08:52:47.736Z,75.30
2018-07-25T08:55:16.072Z,77.60
2018-07-25T08:57:44.429Z,77.80
2018-07-25T09:00:13.406Z,76.70
2018-07-25T09:02:41.836Z,74.70
2018-07-25T09:05:10.856Z,72.70
2018-07-25T09:07:39.767Z,72.10
2018-07-25T09:10:07.962Z,74.20
2018-07-25T09:12:36.386Z,71.60
2018-07-25T09:15:04.733Z,69.10
2018-07-25T09:17:33.009Z,67.50
2018-07-25T09:20:01.244Z,66.50
2018-07-25T09:22:29.590Z,68.50
2018-07-25T09:24:58.064Z,64.90
2018-07-25T09:27:26.409Z,63.80
2018-07-25T09:29:54.684Z,62.90
2018-07-25T09:32:23.178Z,62.30
2018-07-25T09:34:51.559Z,59.70
2018-07-25T09:39:47.906Z,60.00
2018-07-25T09:42:16.140Z,60.10
2018-07-25T09:44:44.405Z,57.80
2018-07-25T09:47:12.950Z,58.90
2018-07-25T09:49:41.351Z,54.00
2018-07-25T09:52:09.645Z,56.20
2018-07-25T09:54:37.946Z,56.60
2018-07-25T09:57:06.234Z,55.90
2018-07-25T09:59:34.474Z,54.60
2018-07-25T10:02:02.786Z,54.60
2018-07-25T10:04:31.008Z,55.70
2018-07-25T10:06:59.453Z,55.50
2018-07-25T10:09:28.767Z,52.30
2018-07-25T10:11:57.095Z,52.80
2018-07-25T10:14:25.350Z,53.40
2018-07-25T10:16:53.687Z,50.70
2018-07-25T10:19:22.069Z,51.30
2018-07-25T10:21:50.297Z,51.10
2018-07-25T10:24:19.189Z,52.40
2018-07-25T10:26:47.605Z,52.50
2018-07-25T10:31:44.168Z,51.20
2018-07-25T10:34:12.600Z,49.30
2018-07-25T10:36:40.880Z,49.10
2018-07-25T10:39:09.835Z,49.20
2018-07-25T10:41:38.259Z,48.00
2018-07-25T10:44:06.506Z,48.70
2018-07-25T10:46:34.769Z,47.80
2018-07-25T10:49:03.058Z,46.30
2018-07-25T10:51:31.377Z,46.20
2018-07-25T10:56:27.758Z,45.20
2018-07-25T10:58:56.062Z,45.30
2018-07-25T11:01:25.996Z,43.80
2018-07-25T11:03:55.363Z,44.00
2018-07-25T11:06:23.640Z,42.30
2018-07-25T11:08:54.240Z,42.70
2018-07-25T11:11:22.625Z,41.70
2018-07-25T11:13:50.953Z,40.40
2018-07-25T11:16:19.342Z,40.60
2018-07-25T11:18:47.773Z,39.90
2018-07-25T11:21:16.057Z,36.20
2018-07-25T11:23:44.328Z,35.10
2018-07-25T11:26:12.680Z,34.40
2018-07-25T11:28:41.560Z,33.40
2018-07-25T11:31:10.097Z,33.10
2018-07-25T11:33:38.391Z,33.30
2018-07-25T11:36:06.696Z,33.90
2018-07-25T11:38:35.017Z,34.50
2018-07-25T11:41:03.306Z,34.30
2018-07-25T11:43:32.089Z,36.10
2018-07-25T11:46:00.374Z,36.70
2018-07-25T11:48:28.883Z,36.40
2018-07-25T11:50:57.182Z,36.30
2018-07-25T11:53:25.594Z,37.10
2018-07-25T11:55:54.480Z,37.70
2018-07-25T11:58:23.155Z,35.90
2018-07-25T12:03:19.725Z,32.20
2018-07-25T12:05:47.995Z,29.60
2018-07-25T12:08:16.479Z,28.70
2018-07-25T12:10:44.836Z,27.20
2018-07-25T12:15:41.210Z,23.50
2018-07-25T12:18:09.770Z,21.70
2018-07-25T12:20:38.285Z,21.60
2018-07-25T12:23:06.777Z,22.50
2018-07-25T12:25:35.054Z,23.00
2018-07-25T12:28:03.459Z,22.40
2018-07-25T12:30:31.791Z,23.10
2018-07-25T12:33:00.069Z,24.60
2018-07-25T12:36:57.762Z,24.80
2018-07-25T12:39:26.069Z,22.70
2018-07-25T12:41:54.434Z,20.80
2018-07-25T12:44:22.868Z,20.90
2018-07-25T12:46:51.206Z,19.80
2018-07-25T12:49:19.510Z,17.80
2018-07-25T12:51:47.822Z,18.10
2018-07-25T12:54:16.239Z,17.80
2018-07-25T12:56:44.377Z,17.60
2018-07-25T12:59:12.655Z,17.60
2018-07-25T13:03:10.105Z,16.90
2018-07-25T13:05:38.701Z,17.50
2018-07-25T13:08:07.064Z,19.40
2018-07-25T13:10:35.483Z,19.90
2018-07-25T13:13:03.788Z,20.10
2018-07-25T13:15:32.137Z,19.30
2018-07-25T13:18:00.510Z,18.60
2018-07-25T13:20:29.297Z,18.40
2018-07-25T13:24:27.062Z,19.30
2018-07-25T13:26:55.357Z,19.90
2018-07-25T13:29:23.593Z,19.50
2018-07-25T13:31:51.855Z,19.50
2018-07-25T13:34:20.177Z,18.30
2018-07-25T13:36:48.406Z,17.20
2018-07-25T13:39:16.630Z,17.20
2018-07-25T13:41:44.972Z,16.30
2018-07-25T13:44:23.613Z,16.40
2018-07-25T13:46:55.600Z,17.80
2018-07-25T13:49:23.809Z,19.10
2018-07-25T13:51:52.068Z,20.70
2018-07-25T13:54:20.233Z,20.70
2018-07-25T13:56:48.489Z,21.50
2018-07-25T13:59:16.738Z,19.60
2018-07-25T14:01:45.004Z,18.30
2018-07-25T14:04:13.198Z,17.30
2018-07-25T14:06:41.661Z,17.20
2018-07-25T14:09:11.170Z,16.90
2018-07-25T14:11:40.448Z,15.40
2018-07-25T14:14:09.119Z,15.40
2018-07-25T14:16:37.350Z,15.90
2018-07-25T14:19:06.070Z,15.50
2018-07-25T14:24:02.881Z,15.30
2018-07-25T14:26:30.853Z,15.60
2018-07-25T14:28:59.184Z,16.10
2018-07-25T14:31:28.005Z,16.80
2018-07-25T14:33:56.470Z,15.90
2018-07-25T14:36:24.833Z,15.60
2018-07-25T14:38:53.053Z,15.00
2018-07-25T14:41:21.328Z,15.10
2018-07-25T14:43:49.897Z,15.10
2018-07-25T14:46:18.223Z,14.30
2018-07-25T14:48:46.614Z,13.90
2018-07-25T14:53:42.825Z,14.10
2018-07-25T14:56:11.034Z,14.30
2018-07-25T14:58:39.742Z,13.60
2018-07-25T15:01:07.965Z,14.20
2018-07-25T15:03:36.313Z,13.50
2018-07-25T15:06:04.614Z,13.70
2018-07-25T15:08:32.898Z,13.00
2018-07-25T15:11:01.178Z,13.10
2018-07-25T15:13:29.402Z,13.50
2018-07-25T15:15:57.617Z,13.30
2018-07-25T15:18:25.970Z,13.10
2018-07-25T15:20:54.201Z,13.30
2018-07-25T15:25:55.951Z,13.40
2018-07-25T15:30:52.381Z,13.30
2018-07-25T15:33:20.737Z,13.50
2018-07-25T15:35:48.994Z,13.40
2018-07-25T15:38:17.403Z,13.40
2018-07-25T15:40:45.698Z,13.50
2018-07-25T15:43:13.959Z,13.70
2018-07-25T15:45:42.246Z,13.50
2018-07-25T15:48:10.515Z,13.60
2018-07-25T15:50:38.796Z,13.50
2018-07-25T15:53:07.134Z,13.80
2018-07-25T15:55:35.433Z,13.80
2018-07-25T15:58:04.009Z,13.80
2018-07-25T16:00:32.469Z,13.70
2018-07-25T16:03:00.721Z,13.80
2018-07-25T16:05:29.024Z,13.80
2018-07-25T16:07:57.346Z,14.20
2018-07-25T16:10:25.641Z,15.20
2018-07-25T16:12:54.189Z,15.30
2018-07-25T16:15:22.465Z,15.90
2018-07-25T16:17:50.674Z,16.20
2018-07-25T16:20:18.881Z,16.20
2018-07-25T16:22:47.146Z,17.00
2018-07-25T16:25:15.433Z,17.40
2018-07-25T16:27:43.763Z,17.40
2018-07-25T16:30:12.100Z,18.00
2018-07-25T16:32:40.310Z,22.10
2018-07-25T16:35:08.642Z,23.60
2018-07-25T16:37:37.168Z,24.40
2018-07-25T16:40:05.633Z,24.50
2018-07-25T16:42:33.842Z,28.40
2018-07-25T16:45:02.495Z,32.90
2018-07-25T16:47:30.722Z,38.20
2018-07-25T16:49:58.970Z,40.40
2018-07-25T16:52:27.237Z,45.70
2018-07-25T16:54:55.477Z,49.10
2018-07-25T16:57:23.685Z,53.90
2018-07-25T16:59:51.897Z,51.70
2018-07-25T17:02:20.181Z,48.90
2018-07-25T17:04:48.429Z,46.20
2018-07-25T17:07:17.109Z,47.00
2018-07-25T17:09:45.377Z,49.00
2018-07-25T17:12:13.632Z,51.20
2018-07-25T17:14:41.905Z,53.50
2018-07-25T17:17:10.073Z,53.10
2018-07-25T17:19:38.291Z,52.50
2018-07-25T17:22:06.738Z,51.30
2018-07-25T17:24:34.967Z,50.90
2018-07-25T17:27:03.291Z,51.50
2018-07-25T17:29:31.582Z,51.10
2018-07-25T17:31:59.852Z,53.70
2018-07-25T17:34:28.074Z,53.00
2018-07-25T17:36:56.292Z,53.80
2018-07-25T17:39:24.527Z,54.20
2018-07-25T17:41:52.798Z,54.40
2018-07-25T17:44:21.084Z,54.90
2018-07-25T17:46:49.505Z,55.00
2018-07-25T17:49:17.717Z,57.20
2018-07-25T17:51:46.104Z,57.70
2018-07-25T17:54:14.591Z,60.20
2018-07-25T17:56:43.014Z,58.40
2018-07-25T17:59:11.386Z,60.00
2018-07-25T18:01:39.575Z,61.40
2018-07-25T18:04:07.802Z,60.90
2018-07-25T18:06:36.064Z,63.20
2018-07-25T18:09:06.105Z,65.30
2018-07-25T18:11:34.334Z,65.90
2018-07-25T18:14:08.261Z,66.20
2018-07-25T18:16:36.488Z,68.70
2018-07-25T18:19:04.726Z,65.00
2018-07-25T18:21:32.948Z,66.20
2018-07-25T18:24:01.159Z,64.00
2018-07-25T18:26:29.344Z,63.70
2018-07-25T18:28:57.541Z,65.80
2018-07-25T18:31:25.754Z,65.80
2018-07-25T18:33:54.049Z,65.80
2018-07-25T18:36:22.258Z,66.20
2018-07-25T18:38:50.493Z,66.80
2018-07-25T18:41:18.703Z,63.40
2018-07-25T18:43:46.957Z,63.20
2018-07-25T18:46:15.175Z,62.70
2018-07-25T18:48:43.397Z,60.70
2018-07-25T18:51:11.925Z,60.30
2018-07-25T18:53:40.185Z,60.40
2018-07-25T18:56:08.568Z,61.80
2018-07-25T18:58:36.885Z,63.80
2018-07-25T19:01:05.130Z,63.00
2018-07-25T19:03:33.365Z,62.80
2018-07-25T19:06:01.571Z,63.90
2018-07-25T19:08:30.651Z,60.90
2018-07-25T19:10:58.844Z,59.60
2018-07-25T19:13:32.485Z,59.90
2018-07-25T19:16:00.782Z,59.40
2018-07-25T19:18:29.166Z,59.40
2018-07-25T19:20:57.476Z,58.40
2018-07-25T19:25:53.670Z,57.20
2018-07-25T19:28:22.539Z,56.90
2018-07-25T19:30:50.929Z,58.40
2018-07-25T19:33:19.158Z,59.20
2018-07-25T19:35:47.440Z,58.70
2018-07-25T19:38:15.681Z,59.70
2018-07-25T19:40:43.978Z,61.10
2018-07-25T19:43:12.202Z,60.00
2018-07-25T19:45:40.428Z,59.80
2018-07-25T19:48:08.698Z,59.30
2018-07-25T19:50:36.945Z,60.30
2018-07-25T19:53:05.297Z,59.70
2018-07-25T19:55:33.497Z,60.60
2018-07-25T19:58:01.845Z,60.70
2018-07-25T20:00:30.141Z,62.90
2018-07-25T20:02:58.602Z,64.60
2018-07-25T20:05:26.810Z,66.00
2018-07-25T20:07:55.053Z,69.30
2018-07-25T20:10:23.551Z,69.30
2018-07-25T20:12:51.769Z,69.60
2018-07-25T20:15:25.485Z,70.60
2018-07-25T20:20:21.737Z,70.80
2018-07-25T20:22:49.966Z,71.40
2018-07-25T20:25:18.464Z,71.50
2018-07-25T20:27:46.689Z,72.60
2018-07-25T20:30:14.938Z,73.40
2018-07-25T20:32:43.154Z,74.90
2018-07-25T20:35:11.378Z,75.40
2018-07-25T20:37:39.631Z,77.00
2018-07-25T20:40:07.906Z,77.90
2018-07-25T20:42:36.165Z,78.30
2018-07-25T20:45:04.833Z,79.70
2018-07-25T20:47:33.255Z,84.50
2018-07-25T20:50:01.519Z,86.20
2018-07-25T20:52:29.737Z,88.40
2018-07-25T20:54:57.972Z,89.40
2018-07-25T20:57:26.183Z,89.10
2018-07-25T20:59:54.421Z,89.50
2018-07-25T21:02:22.658Z,90.80
2018-07-25T21:04:50.893Z,91.60
2018-07-25T21:07:19.133Z,92.60
2018-07-25T21:09:47.449Z,93.70
2018-07-25T21:12:15.726Z,94.70
2018-07-25T21:14:43.962Z,96.50
2018-07-25T21:17:12.337Z,97.30
2018-07-25T21:19:40.557Z,97.00
2018-07-25T21:22:08.824Z,97.10
2018-07-25T21:24:37.055Z,97.00
2018-07-25T21:27:05.314Z,96.80
2018-07-25T21:29:33.561Z,96.70
2018-07-25T21:32:01.951Z,97.10
2018-07-25T21:34:30.202Z,97.20
2018-07-25T21:36:58.445Z,97.70
2018-07-25T21:39:26.717Z,97.90
2018-07-25T21:41:54.950Z,98.70
2018-07-25T21:44:23.193Z,99.40
2018-07-25T21:46:51.493Z,99.90
2018-07-25T21:49:19.746Z,99.90
2018-07-25T21:51:47.995Z,99.90
2018-07-25T21:54:16.563Z,99.90
2018-07-25T21:56:44.870Z,99.90
2018-07-25T21:59:13.105Z,99.90
2018-07-25T22:01:41.419Z,99.90
2018-07-25T22:04:09.625Z,99.90
2018-07-25T22:06:37.858Z,99.90
2018-07-25T22:09:09.211Z,99.90
2018-07-25T22:11:37.973Z,99.90
2018-07-25T22:14:06.323Z,99.90
2018-07-25T22:16:34.593Z,99.90
2018-07-25T22:19:02.825Z,99.90
2018-07-25T22:21:31.050Z,99.90
2018-07-25T22:23:59.284Z,99.90
2018-07-25T22:26:27.531Z,99.90
2018-07-25T22:28:55.935Z,99.90
2018-07-25T22:31:24.146Z,99.90
2018-07-25T22:33:52.378Z,99.90
2018-07-25T22:36:20.859Z,99.90
2018-07-25T22:38:49.063Z,99.90
2018-07-25T22:41:17.272Z,99.90
2018-07-25T22:43:45.529Z,99.90
2018-07-25T22:46:13.767Z,99.90
2018-07-25T22:48:41.997Z,99.90
2018-07-25T22:51:10.211Z,99.90
2018-07-25T22:53:38.491Z,99.90
2018-07-25T22:56:06.717Z,99.90
2018-07-25T23:01:03.041Z,99.90
2018-07-25T23:03:31.285Z,99.90
2018-07-25T23:05:59.514Z,99.90
2018-07-25T23:08:27.741Z,99.90
2018-07-25T23:10:55.978Z,99.90
2018-07-25T23:13:24.237Z,99.90
2018-07-25T23:15:52.526Z,99.90
2018-07-25T23:20:48.739Z,99.90
2018-07-25T23:23:16.999Z,99.90
2018-07-25T23:25:45.213Z,99.90
2018-07-25T23:28:13.464Z,99.90
2018-07-25T23:30:41.654Z,99.90
2018-07-25T23:33:09.897Z,99.90
2018-07-25T23:35:38.121Z,99.90
2018-07-25T23:38:06.397Z,99.90
2018-07-25T23:43:02.952Z,99.90
2018-07-25T23:45:31.201Z,99.90
2018-07-25T23:47:59.427Z,99.90
2018-07-25T23:50:27.646Z,99.90
2018-07-25T23:52:55.901Z,99.90
2018-07-25T23:55:24.114Z,99.90
2018-07-25T23:57:52.422Z,99.90
